Time;durP1;ratioP1;P1;durP2;ratioP2;P2;SDS_P1;SDS_P2;PMS_P1;PMS_P2;Temp;Humidity;BMP_temperature;BMP_pressure;BME280_temperature;BME280_humidity;BME280_pressure;Samples;Min_cycle;Max_cycle;Signal;HPM_P1;HPM_P2
2022/10/20 00:00:51;;;;;;;0.00;0.00;;;;;;;;;;1742369;28;20214;-71
2022/10/20 00:01:42;;;;;;;0.00;0.00;;;;;;;;;;1740025;28;20253;-71
2022/10/20 00:02:34;;;;;;;0.00;0.00;;;;;;;;;;1740007;28;20847;-71
2022/10/20 00:03:25;;;;;;;0.00;0.00;;;;;;;;;;1740353;28;20293;-71
2022/10/20 00:04:19;;;;;;;0.00;0.00;;;;;;;;;;1739874;28;20544;-71
2022/10/20 00:05:10;;;;;;;0.00;0.00;;;;;;;;;;1740522;28;20245;-71
2022/10/20 00:06:09;;;;;;;0.00;0.00;;;;;;;;;;1745821;28;20198;-70
2022/10/20 00:07:00;;;;;;;0.00;0.00;;;;;;;;;;1747043;28;20229;-71
2022/10/20 00:07:52;;;;;;;0.00;0.00;;;;;;;;;;1746951;28;20249;-71
2022/10/20 00:08:44;;;;;;;0.00;0.00;;;;;;;;;;1745805;28;20266;-70
2022/10/20 00:09:36;;;;;;;0.00;0.00;;;;;;;;;;1740252;28;20206;-70
2022/10/20 00:10:27;;;;;;;0.00;0.00;;;;;;;;;;1739592;28;20293;-70
2022/10/20 00:11:20;;;;;;;0.10;0.10;;;;;;;;;;1739945;28;20206;-72
2022/10/20 00:12:11;;;;;;;0.00;0.00;;;;;;;;;;1739481;28;20298;-71
2022/10/20 00:13:03;;;;;;;0.00;0.00;;;;;;;;;;1740299;28;20297;-71
2022/10/20 00:13:55;;;;;;;0.00;0.00;;;;;;;;;;1741028;28;20234;-71
2022/10/20 00:14:47;;;;;;;0.00;0.00;;;;;;;;;;1747146;28;20198;-71
2022/10/20 00:15:38;;;;;;;0.00;0.00;;;;;;;;;;1747041;28;20245;-72
2022/10/20 00:16:31;;;;;;;0.00;0.00;;;;;;;;;;1746735;28;20206;-71
2022/10/20 00:17:22;;;;;;;0.00;0.00;;;;;;;;;;1742833;28;20684;-71
2022/10/20 00:18:14;;;;;;;0.00;0.00;;;;;;;;;;1739908;28;20632;-71
2022/10/20 00:19:05;;;;;;;0.00;0.00;;;;;;;;;;1744405;28;20264;-71
2022/10/20 00:19:59;;;;;;;0.00;0.00;;;;;;;;;;1747160;28;20240;-71
2022/10/20 00:20:50;;;;;;;0.00;0.00;;;;;;;;;;1746853;28;20262;-71
2022/10/20 00:21:42;;;;;;;0.00;0.00;;;;;;;;;;1746877;28;20198;-71
2022/10/20 00:22:33;;;;;;;0.00;0.00;;;;;;;;;;1746289;28;20229;-71
2022/10/20 00:23:26;;;;;;;0.00;0.00;;;;;;;;;;1747244;28;20429;-71
2022/10/20 00:24:19;;;;;;;0.00;0.00;;;;;;;;;;1742423;28;20267;-71
2022/10/20 00:25:11;;;;;;;0.00;0.00;;;;;;;;;;1740726;28;20207;-71
2022/10/20 00:26:03;;;;;;;0.00;0.00;;;;;;;;;;1740058;28;20260;-71
2022/10/20 00:26:55;;;;;;;0.00;0.00;;;;;;;;;;1739862;28;20313;-71
2022/10/20 00:27:46;;;;;;;0.00;0.00;;;;;;;;;;1746961;28;20723;-71
2022/10/20 00:28:38;;;;;;;0.00;0.00;;;;;;;;;;1746779;28;20233;-71
2022/10/20 00:29:29;;;;;;;0.00;0.00;;;;;;;;;;1746964;28;20269;-71
2022/10/20 00:30:21;;;;;;;0.00;0.00;;;;;;;;;;1747281;28;20206;-71
2022/10/20 00:31:13;;;;;;;0.00;0.00;;;;;;;;;;1746667;28;20256;-71
2022/10/20 00:32:05;;;;;;;0.00;0.00;;;;;;;;;;1744922;28;20624;-71
2022/10/20 00:32:56;;;;;;;0.00;0.00;;;;;;;;;;1739949;28;20249;-71
2022/10/20 00:33:47;;;;;;;0.00;0.00;;;;;;;;;;1739828;28;20575;-71
2022/10/20 00:34:39;;;;;;;0.00;0.00;;;;;;;;;;1739863;28;20198;-71
2022/10/20 00:35:32;;;;;;;0.00;0.00;;;;;;;;;;1740684;28;20246;-71
2022/10/20 00:36:25;;;;;;;0.00;0.00;;;;;;;;;;1739894;28;20211;-71
2022/10/20 00:37:16;;;;;;;0.00;0.00;;;;;;;;;;1742149;28;20293;-71
2022/10/20 00:38:08;;;;;;;0.00;0.00;;;;;;;;;;1747129;28;20202;-71
2022/10/20 00:39:00;;;;;;;0.10;0.10;;;;;;;;;;1746579;28;20292;-71
2022/10/20 00:39:52;;;;;;;0.00;0.00;;;;;;;;;;1747278;28;20194;-71
2022/10/20 00:40:43;;;;;;;0.00;0.00;;;;;;;;;;1747006;28;20262;-70
2022/10/20 00:41:35;;;;;;;0.00;0.00;;;;;;;;;;1747087;28;20209;-72
2022/10/20 00:42:26;;;;;;;0.00;0.00;;;;;;;;;;1746314;28;20253;-72
2022/10/20 00:43:18;;;;;;;0.00;0.00;;;;;;;;;;1746739;28;20202;-72
2022/10/20 00:44:29;;;;;;;0.00;0.00;;;;;;;;;;1746891;28;20667;-72
2022/10/20 00:45:21;;;;;;;0.00;0.00;;;;;;;;;;1746866;28;20368;-72
2022/10/20 00:46:15;;;;;;;0.00;0.00;;;;;;;;;;1740529;28;20219;-71
2022/10/20 00:47:08;;;;;;;0.00;0.00;;;;;;;;;;1739581;28;20249;-71
2022/10/20 00:48:04;;;;;;;0.00;0.00;;;;;;;;;;1739892;28;20194;-71
2022/10/20 00:48:57;;;;;;;0.00;0.00;;;;;;;;;;1739870;28;20607;-71
2022/10/20 00:49:49;;;;;;;0.00;0.00;;;;;;;;;;1740155;28;20695;-71
2022/10/20 00:50:43;;;;;;;0.00;0.00;;;;;;;;;;1743872;28;20237;-71
2022/10/20 00:51:35;;;;;;;0.00;0.00;;;;;;;;;;1746826;28;20236;-71
2022/10/20 00:52:26;;;;;;;0.00;0.00;;;;;;;;;;1742412;28;20314;-72
2022/10/20 00:53:19;;;;;;;0.00;0.00;;;;;;;;;;1739716;28;20268;-71
2022/10/20 00:54:11;;;;;;;0.00;0.00;;;;;;;;;;1744938;28;20237;-71
2022/10/20 00:55:03;;;;;;;0.00;0.00;;;;;;;;;;1747155;28;20227;-71
2022/10/20 00:55:56;;;;;;;0.05;0.05;;;;;;;;;;1744669;28;20225;-71
2022/10/20 00:56:48;;;;;;;0.00;0.00;;;;;;;;;;1746990;28;20217;-71
2022/10/20 00:57:40;;;;;;;0.00;0.00;;;;;;;;;;1745507;28;20209;-71
2022/10/20 00:58:31;;;;;;;0.00;0.00;;;;;;;;;;1746657;28;20313;-71
2022/10/20 00:59:27;;;;;;;0.00;0.00;;;;;;;;;;1746626;28;20202;-71
2022/10/20 01:00:18;;;;;;;0.00;0.00;;;;;;;;;;1746773;28;20625;-71
2022/10/20 01:01:11;;;;;;;0.00;0.00;;;;;;;;;;1746957;28;20285;-71
2022/10/20 01:02:04;;;;;;;0.00;0.00;;;;;;;;;;1746343;28;20236;-71
2022/10/20 01:02:58;;;;;;;0.00;0.00;;;;;;;;;;1747081;28;20517;-71
2022/10/20 01:03:50;;;;;;;0.10;0.10;;;;;;;;;;1744475;28;20275;-71
2022/10/20 01:04:42;;;;;;;0.00;0.00;;;;;;;;;;1740014;28;20235;-71
2022/10/20 01:05:33;;;;;;;0.00;0.00;;;;;;;;;;1742929;28;20238;-71
2022/10/20 01:06:26;;;;;;;0.00;0.00;;;;;;;;;;1746626;28;20284;-70
2022/10/20 01:07:17;;;;;;;0.00;0.00;;;;;;;;;;1746677;28;20252;-70
2022/10/20 01:08:09;;;;;;;0.00;0.00;;;;;;;;;;1741821;28;20207;-70
2022/10/20 01:09:01;;;;;;;0.00;0.00;;;;;;;;;;1743681;28;20238;-70
2022/10/20 01:09:53;;;;;;;0.10;0.10;;;;;;;;;;1746751;28;20542;-70
2022/10/20 01:10:47;;;;;;;0.00;0.00;;;;;;;;;;1746805;28;20244;-70
2022/10/20 01:11:41;;;;;;;0.00;0.00;;;;;;;;;;1740109;28;20633;-71
2022/10/20 01:12:36;;;;;;;0.00;0.00;;;;;;;;;;1745826;28;20289;-71
2022/10/20 01:13:30;;;;;;;0.00;0.00;;;;;;;;;;1733298;28;20602;-71
2022/10/20 01:14:28;;;;;;;0.00;0.00;;;;;;;;;;1744201;28;20317;-71
2022/10/20 01:15:24;;;;;;;0.00;0.00;;;;;;;;;;1746646;28;20222;-71
2022/10/20 01:16:19;;;;;;;0.00;0.00;;;;;;;;;;1739984;28;20199;-71
2022/10/20 01:17:15;;;;;;;0.00;0.00;;;;;;;;;;1739673;28;20656;-71
2022/10/20 01:18:12;;;;;;;0.00;0.00;;;;;;;;;;1740159;28;20505;-72
2022/10/20 01:19:14;;;;;;;0.00;0.00;;;;;;;;;;1743801;28;20671;-72
2022/10/20 01:20:25;;;;;;;0.00;0.00;;;;;;;;;;1747170;28;20267;-72
2022/10/20 01:21:30;;;;;;;0.00;0.00;;;;;;;;;;1736071;28;20239;-71
2022/10/20 01:22:30;;;;;;;0.00;0.00;;;;;;;;;;1744422;28;20293;-71
2022/10/20 01:23:35;;;;;;;0.00;0.00;;;;;;;;;;1741213;28;20261;-71
2022/10/20 01:24:33;;;;;;;0.00;0.00;;;;;;;;;;1741212;28;20446;-71
2022/10/20 01:25:33;;;;;;;0.00;0.00;;;;;;;;;;1741855;28;20234;-71
2022/10/20 01:26:36;;;;;;;0.00;0.00;;;;;;;;;;1743992;28;20575;-71
2022/10/20 01:27:34;;;;;;;0.05;0.05;;;;;;;;;;1740770;28;20673;-70
2022/10/20 01:28:28;;;;;;;0.00;0.00;;;;;;;;;;1741454;28;20237;-71
2022/10/20 01:29:23;;;;;;;0.00;0.00;;;;;;;;;;1747236;28;20210;-70
2022/10/20 01:30:17;;;;;;;0.10;0.10;;;;;;;;;;1748306;28;20202;-68
2022/10/20 01:31:12;;;;;;;0.00;0.00;;;;;;;;;;1741703;28;20616;-69
2022/10/20 01:32:07;;;;;;;0.00;0.00;;;;;;;;;;1742151;28;20206;-68
2022/10/20 01:33:10;;;;;;;0.00;0.00;;;;;;;;;;1744758;28;20207;-69
2022/10/20 01:34:06;;;;;;;0.03;0.03;;;;;;;;;;1740879;28;20202;-69
2022/10/20 01:35:04;;;;;;;0.10;0.10;;;;;;;;;;1741297;28;20195;-68
2022/10/20 01:36:00;;;;;;;0.00;0.00;;;;;;;;;;1744595;28;20655;-69
2022/10/20 01:36:55;;;;;;;0.00;0.00;;;;;;;;;;1748378;28;20183;-70
2022/10/20 01:37:48;;;;;;;0.10;0.10;;;;;;;;;;1745845;28;20695;-69
2022/10/20 01:38:43;;;;;;;0.00;0.00;;;;;;;;;;1741021;28;20195;-69
2022/10/20 01:39:37;;;;;;;0.10;0.10;;;;;;;;;;1740910;28;20253;-69
2022/10/20 01:40:31;;;;;;;0.00;0.00;;;;;;;;;;1741313;28;20210;-69
2022/10/20 01:41:25;;;;;;;0.00;0.00;;;;;;;;;;1740655;28;20317;-69
2022/10/20 01:42:20;;;;;;;0.00;0.00;;;;;;;;;;1740696;28;20211;-69
2022/10/20 01:43:14;;;;;;;0.00;0.00;;;;;;;;;;1741144;28;20245;-69
2022/10/20 01:44:07;;;;;;;0.10;0.10;;;;;;;;;;1740553;28;20555;-69
2022/10/20 01:45:00;;;;;;;0.00;0.00;;;;;;;;;;1741396;28;20217;-69
2022/10/20 01:45:52;;;;;;;0.00;0.00;;;;;;;;;;1740836;28;20670;-69
2022/10/20 01:46:44;;;;;;;0.00;0.00;;;;;;;;;;1734209;28;20250;-68
2022/10/20 01:47:37;;;;;;;0.00;0.00;;;;;;;;;;1744962;28;20624;-68
2022/10/20 01:48:31;;;;;;;0.00;0.00;;;;;;;;;;1748088;28;20652;-68
2022/10/20 01:49:23;;;;;;;0.00;0.00;;;;;;;;;;1747864;28;20720;-68
2022/10/20 01:50:16;;;;;;;0.00;0.00;;;;;;;;;;1747936;28;20244;-68
2022/10/20 01:51:09;;;;;;;0.00;0.00;;;;;;;;;;1747925;28;20209;-68
2022/10/20 01:52:00;;;;;;;0.00;0.00;;;;;;;;;;1746077;28;20249;-68
2022/10/20 01:52:55;;;;;;;0.00;0.00;;;;;;;;;;1741055;28;20564;-68
2022/10/20 01:53:46;;;;;;;0.00;0.00;;;;;;;;;;1740843;28;20226;-68
2022/10/20 01:54:38;;;;;;;0.00;0.00;;;;;;;;;;1740898;28;20206;-69
2022/10/20 01:55:30;;;;;;;0.00;0.00;;;;;;;;;;1741143;28;20234;-68
2022/10/20 01:56:27;;;;;;;0.00;0.00;;;;;;;;;;1740741;28;20235;-68
2022/10/20 01:57:25;;;;;;;0.00;0.00;;;;;;;;;;1740824;28;20237;-68
2022/10/20 01:58:25;;;;;;;0.00;0.00;;;;;;;;;;1741073;28;20598;-68
2022/10/20 01:59:20;;;;;;;0.00;0.00;;;;;;;;;;1740711;28;20326;-69
2022/10/20 02:00:13;;;;;;;0.00;0.00;;;;;;;;;;1741171;28;20208;-68
2022/10/20 02:01:09;;;;;;;0.00;0.00;;;;;;;;;;1740580;28;20625;-68
2022/10/20 02:02:08;;;;;;;0.00;0.00;;;;;;;;;;1740787;28;20196;-68
2022/10/20 02:03:08;;;;;;;0.00;0.00;;;;;;;;;;1740599;28;20242;-69
2022/10/20 02:04:02;;;;;;;0.10;0.10;;;;;;;;;;1744095;28;20233;-68
2022/10/20 02:05:03;;;;;;;0.00;0.00;;;;;;;;;;1742259;28;20261;-68
2022/10/20 02:06:02;;;;;;;0.00;0.00;;;;;;;;;;1740737;28;20237;-68
2022/10/20 02:06:56;;;;;;;0.00;0.00;;;;;;;;;;1740878;28;20603;-68
2022/10/20 02:07:48;;;;;;;0.00;0.00;;;;;;;;;;1740971;28;20645;-68
2022/10/20 02:08:42;;;;;;;0.00;0.00;;;;;;;;;;1740374;28;20227;-68
2022/10/20 02:09:37;;;;;;;0.00;0.00;;;;;;;;;;1740965;28;20677;-68
2022/10/20 02:10:31;;;;;;;0.00;0.00;;;;;;;;;;1741253;28;20258;-68
2022/10/20 02:11:26;;;;;;;0.00;0.00;;;;;;;;;;1747882;28;20585;-69
2022/10/20 02:12:21;;;;;;;0.10;0.10;;;;;;;;;;1747335;28;20337;-69
2022/10/20 02:13:13;;;;;;;0.00;0.00;;;;;;;;;;1747684;28;20206;-69
2022/10/20 02:14:07;;;;;;;0.00;0.00;;;;;;;;;;1747203;28;20293;-69
2022/10/20 02:15:00;;;;;;;0.00;0.00;;;;;;;;;;1747711;28;20270;-69
2022/10/20 02:15:53;;;;;;;0.00;0.00;;;;;;;;;;1748004;28;20233;-70
2022/10/20 02:16:46;;;;;;;0.00;0.00;;;;;;;;;;1747907;28;20229;-68
2022/10/20 02:17:39;;;;;;;0.00;0.00;;;;;;;;;;1747318;28;20238;-68
2022/10/20 02:18:32;;;;;;;0.00;0.00;;;;;;;;;;1748013;28;20271;-69
2022/10/20 02:19:26;;;;;;;0.00;0.00;;;;;;;;;;1747233;28;20568;-69
2022/10/20 02:20:18;;;;;;;0.00;0.00;;;;;;;;;;1748067;28;20201;-68
2022/10/20 02:21:09;;;;;;;0.00;0.00;;;;;;;;;;1741627;28;20245;-68
2022/10/20 02:22:02;;;;;;;0.00;0.00;;;;;;;;;;1741380;28;20199;-68
2022/10/20 02:22:53;;;;;;;0.03;0.03;;;;;;;;;;1747884;28;20301;-68
2022/10/20 02:23:46;;;;;;;0.00;0.00;;;;;;;;;;1746078;28;20267;-68
2022/10/20 02:24:38;;;;;;;0.00;0.00;;;;;;;;;;1737022;28;20246;-68
2022/10/20 02:25:31;;;;;;;0.00;0.00;;;;;;;;;;1741236;28;20292;-68
2022/10/20 02:26:24;;;;;;;0.00;0.00;;;;;;;;;;1747875;28;20332;-68
2022/10/20 02:27:17;;;;;;;0.00;0.00;;;;;;;;;;1747427;28;20688;-68
2022/10/20 02:28:09;;;;;;;0.00;0.00;;;;;;;;;;1747817;28;20309;-68
2022/10/20 02:29:04;;;;;;;0.00;0.00;;;;;;;;;;1747615;28;20198;-68
2022/10/20 02:29:58;;;;;;;0.00;0.00;;;;;;;;;;1747208;28;20241;-68
2022/10/20 02:30:50;;;;;;;0.05;0.05;;;;;;;;;;1747730;28;20532;-68
2022/10/20 02:31:42;;;;;;;0.00;0.00;;;;;;;;;;1747522;28;20202;-68
2022/10/20 02:32:35;;;;;;;0.00;0.00;;;;;;;;;;1742120;28;20546;-68
2022/10/20 02:33:26;;;;;;;0.00;0.00;;;;;;;;;;1740654;28;20234;-68
2022/10/20 02:34:18;;;;;;;0.00;0.00;;;;;;;;;;1740163;28;20203;-68
2022/10/20 02:35:13;;;;;;;0.00;0.00;;;;;;;;;;1740857;28;20211;-68
2022/10/20 02:36:09;;;;;;;0.00;0.00;;;;;;;;;;1740236;28;20199;-69
2022/10/20 02:37:00;;;;;;;0.00;0.00;;;;;;;;;;1740727;28;20188;-69
2022/10/20 02:37:53;;;;;;;0.00;0.00;;;;;;;;;;1740548;28;20233;-69
2022/10/20 02:38:44;;;;;;;0.10;0.10;;;;;;;;;;1740609;28;20242;-69
2022/10/20 02:39:36;;;;;;;0.00;0.00;;;;;;;;;;1740990;28;20448;-69
2022/10/20 02:40:27;;;;;;;0.00;0.00;;;;;;;;;;1740466;28;20731;-69
2022/10/20 02:41:19;;;;;;;0.00;0.00;;;;;;;;;;1744115;28;20215;-69
2022/10/20 02:42:11;;;;;;;0.00;0.00;;;;;;;;;;1747025;28;20241;-69
2022/10/20 02:43:03;;;;;;;0.00;0.00;;;;;;;;;;1747696;28;20581;-69
2022/10/20 02:43:54;;;;;;;0.00;0.00;;;;;;;;;;1747279;28;20775;-69
2022/10/20 02:44:46;;;;;;;0.00;0.00;;;;;;;;;;1747447;28;20245;-69
2022/10/20 02:45:38;;;;;;;0.00;0.00;;;;;;;;;;1747589;28;20237;-69
2022/10/20 02:46:30;;;;;;;0.03;0.03;;;;;;;;;;1747347;28;20210;-69
2022/10/20 02:47:21;;;;;;;0.00;0.00;;;;;;;;;;1747265;28;20632;-69
2022/10/20 02:48:13;;;;;;;0.00;0.00;;;;;;;;;;1747487;28;20198;-69
2022/10/20 02:49:04;;;;;;;0.00;0.00;;;;;;;;;;1747300;28;20595;-69
2022/10/20 02:49:56;;;;;;;0.00;0.00;;;;;;;;;;1747690;28;20391;-69
2022/10/20 02:50:48;;;;;;;0.00;0.00;;;;;;;;;;1747227;28;20209;-69
2022/10/20 02:51:40;;;;;;;0.00;0.00;;;;;;;;;;1747591;28;20195;-69
2022/10/20 02:52:31;;;;;;;0.00;0.00;;;;;;;;;;1746792;28;20244;-68
2022/10/20 02:53:23;;;;;;;0.00;0.00;;;;;;;;;;1747603;28;20564;-68
2022/10/20 02:54:14;;;;;;;0.10;0.10;;;;;;;;;;1747110;28;20210;-68
2022/10/20 02:55:06;;;;;;;0.00;0.00;;;;;;;;;;1747835;28;20268;-68
2022/10/20 02:55:57;;;;;;;0.00;0.00;;;;;;;;;;1740736;28;20286;-70
2022/10/20 02:56:49;;;;;;;0.00;0.00;;;;;;;;;;1740259;28;20268;-69
2022/10/20 02:57:40;;;;;;;0.00;0.00;;;;;;;;;;1739929;28;20290;-69
2022/10/20 02:58:32;;;;;;;0.00;0.00;;;;;;;;;;1740738;28;20510;-69
2022/10/20 02:59:23;;;;;;;0.00;0.00;;;;;;;;;;1747229;28;20640;-70
2022/10/20 03:00:16;;;;;;;0.00;0.00;;;;;;;;;;1747996;28;20206;-70
2022/10/20 03:01:08;;;;;;;0.00;0.00;;;;;;;;;;1740321;28;20249;-69
2022/10/20 03:02:00;;;;;;;0.00;0.00;;;;;;;;;;1740117;28;20277;-69
2022/10/20 03:02:51;;;;;;;0.00;0.00;;;;;;;;;;1740373;28;20245;-68
2022/10/20 03:03:43;;;;;;;0.00;0.00;;;;;;;;;;1740597;28;20203;-68
2022/10/20 03:04:34;;;;;;;0.00;0.00;;;;;;;;;;1740570;28;20937;-69
2022/10/20 03:05:26;;;;;;;0.00;0.00;;;;;;;;;;1740509;28;20206;-68
2022/10/20 03:06:17;;;;;;;0.00;0.00;;;;;;;;;;1740311;28;20514;-69
2022/10/20 03:07:09;;;;;;;0.00;0.00;;;;;;;;;;1741424;28;20202;-69
2022/10/20 03:08:01;;;;;;;0.00;0.00;;;;;;;;;;1747556;28;20237;-69
2022/10/20 03:08:53;;;;;;;0.00;0.00;;;;;;;;;;1745072;28;20225;-69
2022/10/20 03:09:44;;;;;;;0.00;0.00;;;;;;;;;;1740606;28;20666;-69
2022/10/20 03:10:36;;;;;;;0.00;0.00;;;;;;;;;;1740729;28;20285;-69
2022/10/20 03:11:27;;;;;;;0.00;0.00;;;;;;;;;;1740365;28;20555;-68
2022/10/20 03:12:19;;;;;;;0.00;0.00;;;;;;;;;;1739760;28;20214;-68
2022/10/20 03:13:11;;;;;;;0.00;0.00;;;;;;;;;;1740387;28;20237;-68
2022/10/20 03:14:03;;;;;;;0.00;0.00;;;;;;;;;;1740884;28;20202;-68
2022/10/20 03:14:54;;;;;;;0.00;0.00;;;;;;;;;;1740725;28;20256;-68
2022/10/20 03:15:46;;;;;;;0.00;0.00;;;;;;;;;;1740368;28;20203;-68
2022/10/20 03:16:38;;;;;;;0.00;0.00;;;;;;;;;;1740624;28;20290;-69
2022/10/20 03:17:30;;;;;;;0.00;0.00;;;;;;;;;;1739898;28;20228;-69
2022/10/20 03:18:21;;;;;;;0.00;0.00;;;;;;;;;;1747082;28;20363;-69
2022/10/20 03:19:13;;;;;;;0.00;0.00;;;;;;;;;;1747004;28;20229;-69
2022/10/20 03:20:05;;;;;;;0.00;0.00;;;;;;;;;;1747758;28;20609;-69
2022/10/20 03:20:57;;;;;;;0.00;0.00;;;;;;;;;;1746965;28;20198;-68
2022/10/20 03:21:48;;;;;;;0.00;0.00;;;;;;;;;;1746851;28;20258;-69
2022/10/20 03:22:40;;;;;;;0.00;0.00;;;;;;;;;;1746119;28;20202;-69
2022/10/20 03:23:31;;;;;;;0.00;0.00;;;;;;;;;;1740345;28;20241;-68
2022/10/20 03:24:23;;;;;;;0.00;0.00;;;;;;;;;;1746332;28;20206;-68
2022/10/20 03:25:14;;;;;;;0.00;0.00;;;;;;;;;;1747744;28;20206;-68
2022/10/20 03:26:07;;;;;;;0.00;0.00;;;;;;;;;;1747065;28;20206;-69
2022/10/20 03:26:58;;;;;;;0.00;0.00;;;;;;;;;;1747121;28;20203;-69
2022/10/20 03:27:50;;;;;;;0.00;0.00;;;;;;;;;;1746983;28;20206;-69
2022/10/20 03:28:42;;;;;;;0.00;0.00;;;;;;;;;;1746889;28;20245;-69
2022/10/20 03:29:34;;;;;;;0.00;0.00;;;;;;;;;;1747420;28;20202;-69
2022/10/20 03:30:25;;;;;;;0.00;0.00;;;;;;;;;;1747299;28;20271;-69
2022/10/20 03:31:17;;;;;;;0.00;0.00;;;;;;;;;;1747564;28;20206;-68
2022/10/20 03:32:09;;;;;;;0.00;0.00;;;;;;;;;;1746698;28;20581;-68
2022/10/20 03:33:01;;;;;;;0.00;0.00;;;;;;;;;;1747440;28;20659;-68
2022/10/20 03:33:52;;;;;;;0.00;0.00;;;;;;;;;;1744185;28;20676;-68
2022/10/20 03:34:44;;;;;;;0.00;0.00;;;;;;;;;;1744339;28;20237;-68
2022/10/20 03:35:35;;;;;;;0.00;0.00;;;;;;;;;;1740679;28;20250;-68
2022/10/20 03:36:27;;;;;;;0.00;0.00;;;;;;;;;;1741521;28;20234;-68
2022/10/20 03:37:18;;;;;;;0.00;0.00;;;;;;;;;;1740331;28;20291;-68
2022/10/20 03:38:10;;;;;;;0.00;0.00;;;;;;;;;;1740189;28;20261;-69
2022/10/20 03:39:02;;;;;;;0.00;0.00;;;;;;;;;;1743777;28;20263;-69
2022/10/20 03:39:54;;;;;;;0.00;0.00;;;;;;;;;;1747353;28;20620;-69
2022/10/20 03:40:45;;;;;;;0.00;0.00;;;;;;;;;;1747227;28;20239;-69
2022/10/20 03:41:37;;;;;;;0.00;0.00;;;;;;;;;;1747142;28;20206;-68
2022/10/20 03:42:28;;;;;;;0.00;0.00;;;;;;;;;;1746560;28;20252;-69
2022/10/20 03:43:20;;;;;;;0.00;0.00;;;;;;;;;;1747294;28;20666;-68
2022/10/20 03:44:11;;;;;;;0.00;0.00;;;;;;;;;;1746279;28;20234;-68
2022/10/20 03:45:04;;;;;;;0.00;0.00;;;;;;;;;;1746943;28;20590;-68
2022/10/20 03:46:01;;;;;;;0.00;0.00;;;;;;;;;;1746170;28;20221;-68
2022/10/20 03:46:53;;;;;;;0.00;0.00;;;;;;;;;;1747133;28;20205;-68
2022/10/20 03:47:46;;;;;;;0.00;0.00;;;;;;;;;;1741776;28;20285;-68
2022/10/20 03:48:38;;;;;;;0.00;0.00;;;;;;;;;;1746888;28;20199;-68
2022/10/20 03:49:32;;;;;;;0.05;0.05;;;;;;;;;;1746818;28;20256;-68
2022/10/20 03:50:24;;;;;;;0.00;0.00;;;;;;;;;;1746387;28;20187;-68
2022/10/20 03:51:15;;;;;;;0.00;0.00;;;;;;;;;;1739873;28;20219;-69
2022/10/20 03:52:07;;;;;;;0.00;0.00;;;;;;;;;;1739897;28;20392;-69
2022/10/20 03:52:58;;;;;;;0.00;0.00;;;;;;;;;;1740070;28;20310;-69
2022/10/20 03:53:50;;;;;;;0.00;0.00;;;;;;;;;;1740371;28;20207;-69
2022/10/20 03:54:41;;;;;;;0.00;0.00;;;;;;;;;;1739913;28;20214;-69
2022/10/20 03:55:33;;;;;;;0.00;0.00;;;;;;;;;;1741080;28;20218;-69
2022/10/20 03:56:25;;;;;;;0.00;0.00;;;;;;;;;;1747011;28;20325;-68
2022/10/20 03:57:17;;;;;;;0.00;0.00;;;;;;;;;;1746799;28;20636;-68
2022/10/20 03:58:08;;;;;;;0.00;0.00;;;;;;;;;;1747261;28;20679;-68
2022/10/20 03:59:00;;;;;;;0.00;0.00;;;;;;;;;;1745575;28;20210;-68
2022/10/20 03:59:51;;;;;;;0.00;0.00;;;;;;;;;;1747234;28;20234;-68
2022/10/20 04:00:43;;;;;;;0.00;0.00;;;;;;;;;;1747009;28;20199;-68
2022/10/20 04:01:34;;;;;;;0.00;0.00;;;;;;;;;;1746833;28;20209;-68
2022/10/20 04:02:33;;;;;;;0.00;0.00;;;;;;;;;;1746657;28;20245;-68
2022/10/20 04:03:25;;;;;;;0.00;0.00;;;;;;;;;;1746973;28;20224;-68
2022/10/20 04:04:17;;;;;;;0.00;0.00;;;;;;;;;;1746951;28;20240;-68
2022/10/20 04:05:09;;;;;;;0.00;0.00;;;;;;;;;;1747466;28;20244;-68
2022/10/20 04:06:01;;;;;;;0.00;0.00;;;;;;;;;;1746450;28;20198;-68
2022/10/20 04:06:52;;;;;;;0.00;0.00;;;;;;;;;;1747318;28;20225;-68
2022/10/20 04:07:44;;;;;;;0.00;0.00;;;;;;;;;;1746623;28;20202;-68
2022/10/20 04:08:35;;;;;;;0.00;0.00;;;;;;;;;;1747006;28;20333;-68
2022/10/20 04:09:27;;;;;;;0.00;0.00;;;;;;;;;;1746761;28;20659;-68
2022/10/20 04:10:18;;;;;;;0.00;0.00;;;;;;;;;;1747350;28;20240;-68
2022/10/20 04:11:10;;;;;;;0.00;0.00;;;;;;;;;;1746768;28;20202;-68
2022/10/20 04:12:01;;;;;;;0.00;0.00;;;;;;;;;;1746576;28;20232;-68
2022/10/20 04:12:53;;;;;;;0.00;0.00;;;;;;;;;;1747250;28;20202;-68
2022/10/20 04:13:44;;;;;;;0.00;0.00;;;;;;;;;;1746885;28;20241;-69
2022/10/20 04:14:36;;;;;;;0.00;0.00;;;;;;;;;;1744160;28;20211;-68
2022/10/20 04:15:27;;;;;;;0.00;0.00;;;;;;;;;;1740088;28;20317;-68
2022/10/20 04:16:19;;;;;;;0.00;0.00;;;;;;;;;;1739900;28;20505;-68
2022/10/20 04:17:10;;;;;;;0.00;0.00;;;;;;;;;;1740085;28;20653;-68
2022/10/20 04:18:02;;;;;;;0.00;0.00;;;;;;;;;;1740032;28;20221;-68
2022/10/20 04:18:55;;;;;;;0.00;0.00;;;;;;;;;;1739846;28;20277;-68
2022/10/20 04:19:47;;;;;;;0.00;0.00;;;;;;;;;;1740179;28;20540;-68
2022/10/20 04:20:38;;;;;;;0.00;0.00;;;;;;;;;;1743375;28;20241;-68
2022/10/20 04:21:30;;;;;;;0.00;0.00;;;;;;;;;;1746872;28;20627;-69
2022/10/20 04:22:21;;;;;;;0.00;0.00;;;;;;;;;;1742334;28;20677;-68
2022/10/20 04:23:13;;;;;;;0.00;0.00;;;;;;;;;;1740301;28;20230;-68
2022/10/20 04:24:06;;;;;;;0.00;0.00;;;;;;;;;;1739597;28;20629;-68
2022/10/20 04:24:58;;;;;;;0.00;0.00;;;;;;;;;;1740104;28;20199;-68
2022/10/20 04:25:49;;;;;;;0.00;0.00;;;;;;;;;;1740359;28;20202;-68
2022/10/20 04:26:41;;;;;;;0.00;0.00;;;;;;;;;;1739812;28;20203;-68
2022/10/20 04:27:32;;;;;;;0.00;0.00;;;;;;;;;;1739861;28;20300;-68
2022/10/20 04:28:24;;;;;;;0.00;0.00;;;;;;;;;;1739864;28;20215;-68
2022/10/20 04:29:15;;;;;;;0.00;0.00;;;;;;;;;;1739797;28;20238;-68
2022/10/20 04:30:08;;;;;;;0.00;0.00;;;;;;;;;;1740655;28;20782;-68
2022/10/20 04:31:00;;;;;;;0.00;0.00;;;;;;;;;;1740608;28;20615;-69
2022/10/20 04:31:52;;;;;;;0.00;0.00;;;;;;;;;;1747001;28;20271;-69
2022/10/20 04:32:43;;;;;;;0.00;0.00;;;;;;;;;;1739483;28;20241;-69
2022/10/20 04:33:35;;;;;;;0.00;0.00;;;;;;;;;;1740235;28;20203;-69
2022/10/20 04:34:28;;;;;;;0.00;0.00;;;;;;;;;;1739788;28;20249;-69
2022/10/20 04:35:20;;;;;;;0.00;0.00;;;;;;;;;;1740406;28;20211;-70
2022/10/20 04:36:12;;;;;;;0.00;0.00;;;;;;;;;;1739959;28;20313;-71
2022/10/20 04:37:04;;;;;;;0.00;0.00;;;;;;;;;;1740387;28;20194;-71
2022/10/20 04:37:55;;;;;;;0.00;0.00;;;;;;;;;;1746800;28;20209;-71
2022/10/20 04:38:47;;;;;;;0.00;0.00;;;;;;;;;;1746654;28;20224;-71
2022/10/20 04:39:38;;;;;;;0.00;0.00;;;;;;;;;;1747042;28;20595;-71
2022/10/20 04:40:29;;;;;;;0.00;0.00;;;;;;;;;;1745692;28;20358;-71
2022/10/20 04:41:21;;;;;;;0.00;0.00;;;;;;;;;;1739849;28;20203;-71
2022/10/20 04:42:12;;;;;;;0.00;0.00;;;;;;;;;;1740337;28;20640;-71
2022/10/20 04:43:04;;;;;;;0.00;0.00;;;;;;;;;;1746474;28;20202;-71
2022/10/20 04:43:56;;;;;;;0.00;0.00;;;;;;;;;;1746675;28;20234;-71
2022/10/20 04:44:48;;;;;;;0.00;0.00;;;;;;;;;;1746722;28;20577;-71
2022/10/20 04:45:39;;;;;;;0.00;0.00;;;;;;;;;;1747151;28;20582;-71
2022/10/20 04:46:31;;;;;;;0.00;0.00;;;;;;;;;;1746990;28;20237;-70
2022/10/20 04:47:23;;;;;;;0.00;0.00;;;;;;;;;;1743216;28;20729;-70
2022/10/20 04:48:14;;;;;;;0.00;0.00;;;;;;;;;;1740010;28;20698;-70
2022/10/20 04:49:06;;;;;;;0.00;0.00;;;;;;;;;;1739782;28;20524;-70
2022/10/20 04:49:58;;;;;;;0.00;0.00;;;;;;;;;;1740132;28;20231;-70
2022/10/20 04:50:59;;;;;;;0.00;0.00;;;;;;;;;;1740187;28;20513;-70
2022/10/20 04:51:50;;;;;;;0.00;0.00;;;;;;;;;;1739766;28;20270;-70
2022/10/20 04:52:42;;;;;;;0.00;0.00;;;;;;;;;;1741115;28;20289;-70
2022/10/20 04:53:34;;;;;;;0.00;0.00;;;;;;;;;;1739748;28;20245;-71
2022/10/20 04:54:26;;;;;;;0.00;0.00;;;;;;;;;;1741381;28;20207;-70
2022/10/20 04:55:17;;;;;;;0.00;0.00;;;;;;;;;;1747024;28;20238;-70
2022/10/20 04:56:11;;;;;;;0.00;0.00;;;;;;;;;;1739856;28;20265;-70
2022/10/20 04:57:04;;;;;;;0.05;0.05;;;;;;;;;;1733179;28;20196;-70
2022/10/20 04:57:56;;;;;;;0.00;0.00;;;;;;;;;;1737588;28;20207;-70
2022/10/20 04:58:48;;;;;;;0.00;0.00;;;;;;;;;;1738849;28;20239;-70
2022/10/20 04:59:40;;;;;;;0.00;0.00;;;;;;;;;;1741159;28;20289;-70
2022/10/20 05:00:31;;;;;;;0.10;0.10;;;;;;;;;;1743550;28;20250;-70
2022/10/20 05:01:24;;;;;;;0.00;0.00;;;;;;;;;;1748186;28;20240;-70
2022/10/20 05:02:15;;;;;;;0.00;0.00;;;;;;;;;;1747690;28;20297;-70
2022/10/20 05:03:07;;;;;;;0.00;0.00;;;;;;;;;;1748305;28;20333;-70
2022/10/20 05:03:58;;;;;;;0.00;0.00;;;;;;;;;;1747789;28;20416;-70
2022/10/20 05:04:50;;;;;;;0.00;0.00;;;;;;;;;;1748307;28;20202;-70
2022/10/20 05:05:43;;;;;;;0.00;0.00;;;;;;;;;;1748055;28;20252;-70
2022/10/20 05:06:35;;;;;;;0.00;0.00;;;;;;;;;;1743042;28;20337;-70
2022/10/20 05:07:29;;;;;;;0.00;0.00;;;;;;;;;;1741210;28;20244;-70
2022/10/20 05:08:21;;;;;;;0.00;0.00;;;;;;;;;;1747412;28;20217;-70
2022/10/20 05:09:12;;;;;;;0.00;0.00;;;;;;;;;;1748219;28;20234;-70
2022/10/20 05:10:05;;;;;;;0.00;0.00;;;;;;;;;;1748362;28;20294;-70
2022/10/20 05:10:56;;;;;;;0.00;0.00;;;;;;;;;;1742879;28;20207;-71
2022/10/20 05:11:48;;;;;;;0.00;0.00;;;;;;;;;;1741204;28;20202;-71
2022/10/20 05:12:39;;;;;;;0.00;0.00;;;;;;;;;;1741438;28;20326;-71
2022/10/20 05:13:31;;;;;;;0.00;0.00;;;;;;;;;;1748491;28;20206;-71
2022/10/20 05:14:22;;;;;;;0.00;0.00;;;;;;;;;;1746182;28;20203;-71
2022/10/20 05:15:14;;;;;;;0.00;0.00;;;;;;;;;;1741399;28;20397;-71
2022/10/20 05:16:06;;;;;;;0.00;0.00;;;;;;;;;;1741086;28;20682;-71
2022/10/20 05:16:58;;;;;;;0.00;0.00;;;;;;;;;;1741049;28;20704;-71